sensor_id;sensor_type;location;lat;lon;timestamp;P1;durP1;ratioP1;P2;durP2;ratioP2
54428;SDS011;40337;52.978;6.310;2023-04-03T00:02:10;2.75;;;1.23;;
54428;SDS011;40337;52.978;6.310;2023-04-03T00:04:35;2.33;;;1.30;;
54428;SDS011;40337;52.978;6.310;2023-04-03T00:07:01;3.17;;;1.45;;
54428;SDS011;40337;52.978;6.310;2023-04-03T00:09:26;2.70;;;1.27;;
54428;SDS011;40337;52.978;6.310;2023-04-03T00:11:52;3.45;;;1.45;;
54428;SDS011;40337;52.978;6.310;2023-04-03T00:14:17;3.70;;;1.45;;
54428;SDS011;40337;52.978;6.310;2023-04-03T00:16:43;4.60;;;1.50;;
54428;SDS011;40337;52.978;6.310;2023-04-03T00:19:08;2.75;;;1.25;;
54428;SDS011;40337;52.978;6.310;2023-04-03T00:21:36;3.22;;;1.55;;
54428;SDS011;40337;52.978;6.310;2023-04-03T00:24:02;3.50;;;1.63;;
54428;SDS011;40337;52.978;6.310;2023-04-03T00:26:28;3.28;;;1.42;;
54428;SDS011;40337;52.978;6.310;2023-04-03T00:28:53;4.05;;;1.60;;
54428;SDS011;40337;52.978;6.310;2023-04-03T00:31:19;4.30;;;1.50;;
54428;SDS011;40337;52.978;6.310;2023-04-03T00:33:44;3.75;;;1.60;;
54428;SDS011;40337;52.978;6.310;2023-04-03T00:36:10;3.05;;;1.30;;
54428;SDS011;40337;52.978;6.310;2023-04-03T00:38:37;3.97;;;1.33;;
54428;SDS011;40337;52.978;6.310;2023-04-03T00:41:02;3.58;;;1.50;;
54428;SDS011;40337;52.978;6.310;2023-04-03T00:43:28;4.50;;;1.35;;
54428;SDS011;40337;52.978;6.310;2023-04-03T00:45:55;2.15;;;1.17;;
54428;SDS011;40337;52.978;6.310;2023-04-03T00:48:43;3.47;;;1.50;;
54428;SDS011;40337;52.978;6.310;2023-04-03T00:51:11;3.88;;;1.45;;
54428;SDS011;40337;52.978;6.310;2023-04-03T00:53:41;2.97;;;1.35;;
54428;SDS011;40337;52.978;6.310;2023-04-03T00:56:11;2.40;;;1.23;;
54428;SDS011;40337;52.978;6.310;2023-04-03T00:58:49;2.75;;;1.20;;
54428;SDS011;40337;52.978;6.310;2023-04-03T01:01:25;3.08;;;1.35;;
54428;SDS011;40337;52.978;6.310;2023-04-03T01:03:52;2.90;;;1.35;;
54428;SDS011;40337;52.978;6.310;2023-04-03T01:06:20;2.78;;;1.50;;
54428;SDS011;40337;52.978;6.310;2023-04-03T01:08:49;3.65;;;1.58;;
54428;SDS011;40337;52.978;6.310;2023-04-03T01:11:16;4.10;;;1.50;;
54428;SDS011;40337;52.978;6.310;2023-04-03T01:13:42;4.93;;;1.40;;
54428;SDS011;40337;52.978;6.310;2023-04-03T01:16:08;2.70;;;1.27;;
54428;SDS011;40337;52.978;6.310;2023-04-03T01:18:35;2.83;;;1.25;;
54428;SDS011;40337;52.978;6.310;2023-04-03T01:24:03;3.35;;;1.30;;
54428;SDS011;40337;52.978;6.310;2023-04-03T01:26:31;4.00;;;1.35;;
54428;SDS011;40337;52.978;6.310;2023-04-03T01:28:58;3.17;;;1.20;;
54428;SDS011;40337;52.978;6.310;2023-04-03T01:31:26;2.72;;;1.15;;
54428;SDS011;40337;52.978;6.310;2023-04-03T01:33:56;2.63;;;1.40;;
54428;SDS011;40337;52.978;6.310;2023-04-03T01:36:23;2.10;;;1.20;;
54428;SDS011;40337;52.978;6.310;2023-04-03T01:38:51;3.50;;;1.25;;
54428;SDS011;40337;52.978;6.310;2023-04-03T01:41:17;2.65;;;1.48;;
54428;SDS011;40337;52.978;6.310;2023-04-03T01:43:43;3.50;;;1.50;;
54428;SDS011;40337;52.978;6.310;2023-04-03T01:46:09;3.05;;;1.40;;
54428;SDS011;40337;52.978;6.310;2023-04-03T01:48:35;4.75;;;1.67;;
54428;SDS011;40337;52.978;6.310;2023-04-03T01:51:00;2.53;;;1.40;;
54428;SDS011;40337;52.978;6.310;2023-04-03T01:53:26;3.50;;;1.52;;
54428;SDS011;40337;52.978;6.310;2023-04-03T01:55:51;3.90;;;1.30;;
54428;SDS011;40337;52.978;6.310;2023-04-03T01:58:17;3.50;;;1.70;;
54428;SDS011;40337;52.978;6.310;2023-04-03T02:00:42;3.05;;;1.45;;
54428;SDS011;40337;52.978;6.310;2023-04-03T02:03:08;3.30;;;1.50;;
54428;SDS011;40337;52.978;6.310;2023-04-03T02:05:34;4.68;;;1.65;;
54428;SDS011;40337;52.978;6.310;2023-04-03T02:07:59;3.83;;;1.60;;
54428;SDS011;40337;52.978;6.310;2023-04-03T02:10:25;3.58;;;1.50;;
54428;SDS011;40337;52.978;6.310;2023-04-03T02:12:51;3.17;;;1.40;;
54428;SDS011;40337;52.978;6.310;2023-04-03T02:15:17;3.58;;;1.58;;
54428;SDS011;40337;52.978;6.310;2023-04-03T02:17:42;4.70;;;1.70;;
54428;SDS011;40337;52.978;6.310;2023-04-03T02:20:08;3.97;;;1.70;;
54428;SDS011;40337;52.978;6.310;2023-04-03T02:22:34;3.42;;;1.52;;
54428;SDS011;40337;52.978;6.310;2023-04-03T02:25:00;3.83;;;1.70;;
54428;SDS011;40337;52.978;6.310;2023-04-03T02:27:25;4.55;;;1.77;;
54428;SDS011;40337;52.978;6.310;2023-04-03T02:29:51;4.13;;;1.77;;
54428;SDS011;40337;52.978;6.310;2023-04-03T02:32:17;4.50;;;1.80;;
54428;SDS011;40337;52.978;6.310;2023-04-03T02:34:42;4.05;;;1.60;;
54428;SDS011;40337;52.978;6.310;2023-04-03T02:37:08;3.65;;;1.70;;
54428;SDS011;40337;52.978;6.310;2023-04-03T02:39:34;4.97;;;1.90;;
54428;SDS011;40337;52.978;6.310;2023-04-03T02:42:00;5.03;;;1.80;;
54428;SDS011;40337;52.978;6.310;2023-04-03T02:44:25;5.93;;;1.70;;
54428;SDS011;40337;52.978;6.310;2023-04-03T02:46:51;2.95;;;1.70;;
54428;SDS011;40337;52.978;6.310;2023-04-03T02:49:16;3.78;;;1.73;;
54428;SDS011;40337;52.978;6.310;2023-04-03T02:51:42;4.22;;;1.98;;
54428;SDS011;40337;52.978;6.310;2023-04-03T02:54:08;3.50;;;1.60;;
54428;SDS011;40337;52.978;6.310;2023-04-03T02:56:33;3.63;;;1.77;;
54428;SDS011;40337;52.978;6.310;2023-04-03T02:58:59;3.90;;;1.80;;
54428;SDS011;40337;52.978;6.310;2023-04-03T03:01:25;4.38;;;1.70;;
54428;SDS011;40337;52.978;6.310;2023-04-03T03:03:53;4.97;;;1.77;;
54428;SDS011;40337;52.978;6.310;2023-04-03T03:06:19;3.00;;;1.65;;
54428;SDS011;40337;52.978;6.310;2023-04-03T03:08:44;4.50;;;1.80;;
54428;SDS011;40337;52.978;6.310;2023-04-03T03:11:10;3.95;;;1.90;;
54428;SDS011;40337;52.978;6.310;2023-04-03T03:13:36;5.57;;;2.10;;
54428;SDS011;40337;52.978;6.310;2023-04-03T03:16:02;4.32;;;1.90;;
54428;SDS011;40337;52.978;6.310;2023-04-03T03:18:28;5.85;;;2.08;;
54428;SDS011;40337;52.978;6.310;2023-04-03T03:20:56;5.35;;;2.03;;
54428;SDS011;40337;52.978;6.310;2023-04-03T03:23:23;3.42;;;1.65;;
54428;SDS011;40337;52.978;6.310;2023-04-03T03:25:54;4.25;;;2.00;;
54428;SDS011;40337;52.978;6.310;2023-04-03T03:28:24;5.85;;;1.98;;
54428;SDS011;40337;52.978;6.310;2023-04-03T03:30:50;4.85;;;2.08;;
54428;SDS011;40337;52.978;6.310;2023-04-03T03:33:16;4.22;;;2.10;;
54428;SDS011;40337;52.978;6.310;2023-04-03T03:35:42;3.95;;;1.88;;
54428;SDS011;40337;52.978;6.310;2023-04-03T03:38:08;4.68;;;2.05;;
54428;SDS011;40337;52.978;6.310;2023-04-03T03:40:34;3.80;;;1.92;;
54428;SDS011;40337;52.978;6.310;2023-04-03T03:43:00;5.38;;;2.00;;
54428;SDS011;40337;52.978;6.310;2023-04-03T03:45:25;4.38;;;2.28;;
54428;SDS011;40337;52.978;6.310;2023-04-03T03:47:51;5.78;;;2.08;;
54428;SDS011;40337;52.978;6.310;2023-04-03T03:50:17;4.93;;;1.88;;
54428;SDS011;40337;52.978;6.310;2023-04-03T03:52:42;5.50;;;2.15;;
54428;SDS011;40337;52.978;6.310;2023-04-03T03:55:08;4.32;;;2.30;;
54428;SDS011;40337;52.978;6.310;2023-04-03T03:57:34;5.07;;;2.28;;
54428;SDS011;40337;52.978;6.310;2023-04-03T04:00:00;3.95;;;1.88;;
54428;SDS011;40337;52.978;6.310;2023-04-03T04:02:25;4.35;;;2.35;;
54428;SDS011;40337;52.978;6.310;2023-04-03T04:04:51;4.45;;;2.13;;
54428;SDS011;40337;52.978;6.310;2023-04-03T04:07:16;5.65;;;2.13;;
54428;SDS011;40337;52.978;6.310;2023-04-03T04:09:42;8.73;;;2.75;;
54428;SDS011;40337;52.978;6.310;2023-04-03T04:12:07;7.05;;;2.30;;
54428;SDS011;40337;52.978;6.310;2023-04-03T04:14:33;6.05;;;2.22;;
54428;SDS011;40337;52.978;6.310;2023-04-03T04:16:59;5.28;;;2.00;;
54428;SDS011;40337;52.978;6.310;2023-04-03T04:19:24;4.40;;;2.20;;
54428;SDS011;40337;52.978;6.310;2023-04-03T04:21:50;5.40;;;2.20;;
54428;SDS011;40337;52.978;6.310;2023-04-03T04:24:15;4.43;;;2.20;;
54428;SDS011;40337;52.978;6.310;2023-04-03T04:26:41;7.15;;;2.33;;
54428;SDS011;40337;52.978;6.310;2023-04-03T04:29:08;5.45;;;2.40;;
54428;SDS011;40337;52.978;6.310;2023-04-03T04:31:34;5.55;;;2.45;;
54428;SDS011;40337;52.978;6.310;2023-04-03T04:33:59;7.93;;;2.58;;
54428;SDS011;40337;52.978;6.310;2023-04-03T04:36:25;6.78;;;2.53;;
54428;SDS011;40337;52.978;6.310;2023-04-03T04:38:51;5.93;;;2.50;;
54428;SDS011;40337;52.978;6.310;2023-04-03T04:41:19;4.22;;;2.15;;
54428;SDS011;40337;52.978;6.310;2023-04-03T04:43:47;6.43;;;2.30;;
54428;SDS011;40337;52.978;6.310;2023-04-03T04:46:13;6.68;;;2.55;;
54428;SDS011;40337;52.978;6.310;2023-04-03T04:48:39;5.38;;;2.65;;
54428;SDS011;40337;52.978;6.310;2023-04-03T04:51:05;6.75;;;2.50;;
54428;SDS011;40337;52.978;6.310;2023-04-03T04:53:31;4.75;;;2.65;;
54428;SDS011;40337;52.978;6.310;2023-04-03T04:55:56;5.25;;;2.67;;
54428;SDS011;40337;52.978;6.310;2023-04-03T04:58:22;8.48;;;2.92;;
54428;SDS011;40337;52.978;6.310;2023-04-03T05:00:48;6.45;;;2.53;;
54428;SDS011;40337;52.978;6.310;2023-04-03T05:03:13;6.88;;;2.70;;
54428;SDS011;40337;52.978;6.310;2023-04-03T05:05:39;5.25;;;2.42;;
54428;SDS011;40337;52.978;6.310;2023-04-03T05:08:05;5.45;;;2.83;;
54428;SDS011;40337;52.978;6.310;2023-04-03T05:10:31;8.50;;;2.80;;
54428;SDS011;40337;52.978;6.310;2023-04-03T05:12:57;6.07;;;2.67;;
54428;SDS011;40337;52.978;6.310;2023-04-03T05:15:23;6.60;;;2.80;;
54428;SDS011;40337;52.978;6.310;2023-04-03T05:17:48;6.22;;;2.85;;
54428;SDS011;40337;52.978;6.310;2023-04-03T05:20:14;5.50;;;3.03;;
54428;SDS011;40337;52.978;6.310;2023-04-03T05:22:40;7.35;;;3.35;;
54428;SDS011;40337;52.978;6.310;2023-04-03T05:25:05;6.47;;;2.97;;
54428;SDS011;40337;52.978;6.310;2023-04-03T05:27:31;5.45;;;2.97;;
54428;SDS011;40337;52.978;6.310;2023-04-03T05:29:57;8.77;;;3.10;;
54428;SDS011;40337;52.978;6.310;2023-04-03T05:32:23;7.22;;;3.30;;
54428;SDS011;40337;52.978;6.310;2023-04-03T05:34:51;5.75;;;3.05;;
54428;SDS011;40337;52.978;6.310;2023-04-03T05:37:16;7.18;;;3.17;;
54428;SDS011;40337;52.978;6.310;2023-04-03T05:39:42;5.95;;;3.20;;
54428;SDS011;40337;52.978;6.310;2023-04-03T05:42:08;5.70;;;3.30;;
54428;SDS011;40337;52.978;6.310;2023-04-03T05:44:33;8.45;;;3.55;;
54428;SDS011;40337;52.978;6.310;2023-04-03T05:47:00;9.75;;;3.70;;
54428;SDS011;40337;52.978;6.310;2023-04-03T05:49:25;7.30;;;3.40;;
54428;SDS011;40337;52.978;6.310;2023-04-03T05:51:51;8.80;;;3.60;;
54428;SDS011;40337;52.978;6.310;2023-04-03T05:54:20;8.27;;;3.50;;
54428;SDS011;40337;52.978;6.310;2023-04-03T05:56:49;8.15;;;3.47;;
54428;SDS011;40337;52.978;6.310;2023-04-03T05:59:16;6.97;;;3.38;;
54428;SDS011;40337;52.978;6.310;2023-04-03T06:01:42;7.78;;;3.25;;
54428;SDS011;40337;52.978;6.310;2023-04-03T06:04:08;7.80;;;3.72;;
54428;SDS011;40337;52.978;6.310;2023-04-03T06:06:47;10.05;;;3.97;;
54428;SDS011;40337;52.978;6.310;2023-04-03T06:09:32;6.45;;;3.10;;
54428;SDS011;40337;52.978;6.310;2023-04-03T06:11:58;9.95;;;3.72;;
54428;SDS011;40337;52.978;6.310;2023-04-03T06:14:25;9.10;;;3.20;;
54428;SDS011;40337;52.978;6.310;2023-04-03T06:16:51;7.85;;;3.40;;
54428;SDS011;40337;52.978;6.310;2023-04-03T06:19:19;6.60;;;3.47;;
54428;SDS011;40337;52.978;6.310;2023-04-03T06:21:45;8.32;;;3.42;;
54428;SDS011;40337;52.978;6.310;2023-04-03T06:24:12;9.73;;;3.25;;
54428;SDS011;40337;52.978;6.310;2023-04-03T06:26:40;7.88;;;3.30;;
54428;SDS011;40337;52.978;6.310;2023-04-03T06:29:07;7.93;;;2.92;;
54428;SDS011;40337;52.978;6.310;2023-04-03T06:31:32;7.47;;;3.60;;
54428;SDS011;40337;52.978;6.310;2023-04-03T06:33:58;8.50;;;3.40;;
54428;SDS011;40337;52.978;6.310;2023-04-03T06:36:24;7.25;;;3.30;;
54428;SDS011;40337;52.978;6.310;2023-04-03T06:38:50;6.88;;;3.55;;
54428;SDS011;40337;52.978;6.310;2023-04-03T06:41:16;7.13;;;3.28;;
54428;SDS011;40337;52.978;6.310;2023-04-03T06:43:43;7.32;;;3.30;;
54428;SDS011;40337;52.978;6.310;2023-04-03T06:46:16;8.88;;;3.45;;
54428;SDS011;40337;52.978;6.310;2023-04-03T06:48:43;10.52;;;3.55;;
54428;SDS011;40337;52.978;6.310;2023-04-03T06:51:19;10.43;;;3.60;;
54428;SDS011;40337;52.978;6.310;2023-04-03T06:53:53;7.10;;;3.25;;
54428;SDS011;40337;52.978;6.310;2023-04-03T06:56:20;5.03;;;2.80;;
54428;SDS011;40337;52.978;6.310;2023-04-03T06:58:47;5.40;;;2.83;;
54428;SDS011;40337;52.978;6.310;2023-04-03T07:01:13;5.88;;;2.92;;
54428;SDS011;40337;52.978;6.310;2023-04-03T07:03:41;6.75;;;3.03;;
54428;SDS011;40337;52.978;6.310;2023-04-03T07:06:07;5.95;;;2.63;;
54428;SDS011;40337;52.978;6.310;2023-04-03T07:08:36;7.75;;;3.00;;
54428;SDS011;40337;52.978;6.310;2023-04-03T07:11:02;5.35;;;2.88;;
54428;SDS011;40337;52.978;6.310;2023-04-03T07:13:28;5.38;;;2.50;;
54428;SDS011;40337;52.978;6.310;2023-04-03T07:15:54;7.47;;;2.50;;
54428;SDS011;40337;52.978;6.310;2023-04-03T07:18:19;5.18;;;2.47;;
54428;SDS011;40337;52.978;6.310;2023-04-03T07:20:46;7.25;;;2.85;;
54428;SDS011;40337;52.978;6.310;2023-04-03T07:23:12;5.63;;;2.47;;
54428;SDS011;40337;52.978;6.310;2023-04-03T07:25:42;5.25;;;2.45;;
54428;SDS011;40337;52.978;6.310;2023-04-03T07:28:11;6.97;;;2.50;;
54428;SDS011;40337;52.978;6.310;2023-04-03T07:30:47;5.38;;;2.53;;
54428;SDS011;40337;52.978;6.310;2023-04-03T07:33:24;5.82;;;2.58;;
54428;SDS011;40337;52.978;6.310;2023-04-03T07:35:50;6.53;;;2.53;;
54428;SDS011;40337;52.978;6.310;2023-04-03T07:38:16;6.15;;;2.38;;
54428;SDS011;40337;52.978;6.310;2023-04-03T07:40:45;4.82;;;2.20;;
54428;SDS011;40337;52.978;6.310;2023-04-03T07:43:12;5.28;;;2.30;;
54428;SDS011;40337;52.978;6.310;2023-04-03T07:45:38;6.30;;;2.15;;
54428;SDS011;40337;52.978;6.310;2023-04-03T07:48:04;4.95;;;2.13;;
54428;SDS011;40337;52.978;6.310;2023-04-03T07:50:30;4.90;;;2.03;;
54428;SDS011;40337;52.978;6.310;2023-04-03T07:52:57;5.45;;;2.22;;
54428;SDS011;40337;52.978;6.310;2023-04-03T07:55:23;5.22;;;1.80;;
54428;SDS011;40337;52.978;6.310;2023-04-03T07:57:48;4.03;;;1.88;;
54428;SDS011;40337;52.978;6.310;2023-04-03T08:00:14;8.32;;;2.10;;
54428;SDS011;40337;52.978;6.310;2023-04-03T08:02:42;3.97;;;1.73;;
54428;SDS011;40337;52.978;6.310;2023-04-03T08:05:09;8.07;;;2.50;;
54428;SDS011;40337;52.978;6.310;2023-04-03T08:07:36;5.28;;;2.08;;
54428;SDS011;40337;52.978;6.310;2023-04-03T08:10:02;4.25;;;1.80;;
54428;SDS011;40337;52.978;6.310;2023-04-03T08:12:28;8.20;;;2.00;;
54428;SDS011;40337;52.978;6.310;2023-04-03T08:14:54;5.70;;;2.10;;
54428;SDS011;40337;52.978;6.310;2023-04-03T08:17:20;3.80;;;1.63;;
54428;SDS011;40337;52.978;6.310;2023-04-03T08:19:46;4.82;;;1.83;;
54428;SDS011;40337;52.978;6.310;2023-04-03T08:22:12;5.78;;;1.83;;
54428;SDS011;40337;52.978;6.310;2023-04-03T08:24:37;3.38;;;1.40;;
54428;SDS011;40337;52.978;6.310;2023-04-03T08:27:03;5.38;;;1.88;;
54428;SDS011;40337;52.978;6.310;2023-04-03T08:29:28;5.28;;;1.90;;
54428;SDS011;40337;52.978;6.310;2023-04-03T08:31:54;3.90;;;1.70;;
54428;SDS011;40337;52.978;6.310;2023-04-03T08:34:20;4.72;;;1.65;;
54428;SDS011;40337;52.978;6.310;2023-04-03T08:36:46;4.32;;;1.63;;
54428;SDS011;40337;52.978;6.310;2023-04-03T08:39:12;3.78;;;1.45;;
54428;SDS011;40337;52.978;6.310;2023-04-03T08:41:42;4.05;;;1.60;;
54428;SDS011;40337;52.978;6.310;2023-04-03T08:47:19;5.75;;;1.60;;
54428;SDS011;40337;52.978;6.310;2023-04-03T08:52:36;4.97;;;1.67;;
54428;SDS011;40337;52.978;6.310;2023-04-03T08:55:06;4.15;;;1.75;;
54428;SDS011;40337;52.978;6.310;2023-04-03T08:57:43;4.65;;;1.70;;
54428;SDS011;40337;52.978;6.310;2023-04-03T09:02:52;3.60;;;1.88;;
54428;SDS011;40337;52.978;6.310;2023-04-03T09:08:00;5.20;;;1.58;;
54428;SDS011;40337;52.978;6.310;2023-04-03T09:10:43;4.93;;;1.58;;
54428;SDS011;40337;52.978;6.310;2023-04-03T09:13:21;3.28;;;1.40;;
54428;SDS011;40337;52.978;6.310;2023-04-03T09:15:50;4.20;;;1.35;;
54428;SDS011;40337;52.978;6.310;2023-04-03T09:23:49;5.18;;;1.90;;
54428;SDS011;40337;52.978;6.310;2023-04-03T09:26:17;4.35;;;1.65;;
54428;SDS011;40337;52.978;6.310;2023-04-03T09:28:48;2.45;;;1.15;;
54428;SDS011;40337;52.978;6.310;2023-04-03T09:31:21;2.97;;;1.58;;
54428;SDS011;40337;52.978;6.310;2023-04-03T09:33:55;2.65;;;1.30;;
54428;SDS011;40337;52.978;6.310;2023-04-03T09:39:10;3.17;;;1.42;;
54428;SDS011;40337;52.978;6.310;2023-04-03T09:41:41;5.00;;;1.60;;
54428;SDS011;40337;52.978;6.310;2023-04-03T09:44:19;3.67;;;1.70;;
54428;SDS011;40337;52.978;6.310;2023-04-03T09:46:47;3.15;;;1.30;;
54428;SDS011;40337;52.978;6.310;2023-04-03T09:49:13;4.57;;;1.35;;
54428;SDS011;40337;52.978;6.310;2023-04-03T09:51:38;5.47;;;1.60;;
54428;SDS011;40337;52.978;6.310;2023-04-03T09:54:25;2.38;;;0.90;;
54428;SDS011;40337;52.978;6.310;2023-04-03T09:57:07;3.78;;;1.00;;
54428;SDS011;40337;52.978;6.310;2023-04-03T09:59:35;2.58;;;1.10;;
54428;SDS011;40337;52.978;6.310;2023-04-03T10:02:49;2.33;;;0.93;;
54428;SDS011;40337;52.978;6.310;2023-04-03T10:04:52;2.50;;;1.10;;
54428;SDS011;40337;52.978;6.310;2023-04-03T10:07:29;2.45;;;1.00;;
54428;SDS011;40337;52.978;6.310;2023-04-03T10:10:15;2.33;;;1.05;;
54428;SDS011;40337;52.978;6.310;2023-04-03T10:12:45;3.60;;;1.20;;
54428;SDS011;40337;52.978;6.310;2023-04-03T10:15:11;2.88;;;1.10;;
54428;SDS011;40337;52.978;6.310;2023-04-03T10:17:50;1.50;;;0.77;;
54428;SDS011;40337;52.978;6.310;2023-04-03T10:20:40;3.28;;;1.10;;
54428;SDS011;40337;52.978;6.310;2023-04-03T10:23:14;2.80;;;1.10;;
54428;SDS011;40337;52.978;6.310;2023-04-03T10:32:02;2.38;;;1.00;;
54428;SDS011;40337;52.978;6.310;2023-04-03T10:37:50;2.67;;;1.20;;
54428;SDS011;40337;52.978;6.310;2023-04-03T10:40:34;2.65;;;1.00;;
54428;SDS011;40337;52.978;6.310;2023-04-03T10:43:09;2.65;;;1.10;;
54428;SDS011;40337;52.978;6.310;2023-04-03T10:51:24;1.58;;;0.90;;
54428;SDS011;40337;52.978;6.310;2023-04-03T10:54:13;2.78;;;1.05;;
54428;SDS011;40337;52.978;6.310;2023-04-03T10:56:50;3.15;;;1.30;;
54428;SDS011;40337;52.978;6.310;2023-04-03T10:59:38;2.28;;;1.00;;
54428;SDS011;40337;52.978;6.310;2023-04-03T11:02:07;3.00;;;0.90;;
54428;SDS011;40337;52.978;6.310;2023-04-03T11:04:34;2.67;;;0.93;;
54428;SDS011;40337;52.978;6.310;2023-04-03T11:07:17;2.28;;;1.10;;
54428;SDS011;40337;52.978;6.310;2023-04-03T11:09:47;3.25;;;1.13;;
54428;SDS011;40337;52.978;6.310;2023-04-03T11:12:21;3.92;;;1.23;;
54428;SDS011;40337;52.978;6.310;2023-04-03T11:14:53;2.40;;;1.00;;
54428;SDS011;40337;52.978;6.310;2023-04-03T11:17:24;4.63;;;1.10;;
54428;SDS011;40337;52.978;6.310;2023-04-03T11:22:43;2.13;;;0.98;;
54428;SDS011;40337;52.978;6.310;2023-04-03T11:25:36;1.80;;;0.93;;
54428;SDS011;40337;52.978;6.310;2023-04-03T11:28:05;8.23;;;1.08;;
54428;SDS011;40337;52.978;6.310;2023-04-03T11:30:43;1.25;;;0.80;;
54428;SDS011;40337;52.978;6.310;2023-04-03T11:33:36;2.92;;;1.20;;
54428;SDS011;40337;52.978;6.310;2023-04-03T11:36:30;3.05;;;1.00;;
54428;SDS011;40337;52.978;6.310;2023-04-03T11:39:04;2.83;;;1.10;;
54428;SDS011;40337;52.978;6.310;2023-04-03T11:41:41;1.73;;;0.90;;
54428;SDS011;40337;52.978;6.310;2023-04-03T11:44:26;2.35;;;1.10;;
54428;SDS011;40337;52.978;6.310;2023-04-03T11:46:59;3.22;;;1.05;;
54428;SDS011;40337;52.978;6.310;2023-04-03T11:55:36;2.70;;;1.05;;
54428;SDS011;40337;52.978;6.310;2023-04-03T12:16:19;2.83;;;1.00;;
54428;SDS011;40337;52.978;6.310;2023-04-03T12:21:22;2.40;;;0.95;;
54428;SDS011;40337;52.978;6.310;2023-04-03T12:29:58;3.60;;;1.20;;
54428;SDS011;40337;52.978;6.310;2023-04-03T12:43:23;2.50;;;1.23;;
54428;SDS011;40337;52.978;6.310;2023-04-03T12:48:51;2.40;;;1.13;;
54428;SDS011;40337;52.978;6.310;2023-04-03T12:54:18;4.95;;;1.48;;
54428;SDS011;40337;52.978;6.310;2023-04-03T12:56:42;2.72;;;1.10;;
54428;SDS011;40337;52.978;6.310;2023-04-03T12:59:15;2.50;;;1.20;;
54428;SDS011;40337;52.978;6.310;2023-04-03T13:01:55;3.40;;;1.23;;
54428;SDS011;40337;52.978;6.310;2023-04-03T13:04:29;3.72;;;1.55;;
54428;SDS011;40337;52.978;6.310;2023-04-03T13:06:56;3.20;;;1.30;;
54428;SDS011;40337;52.978;6.310;2023-04-03T13:09:23;6.20;;;1.50;;
54428;SDS011;40337;52.978;6.310;2023-04-03T13:11:56;2.55;;;1.25;;
54428;SDS011;40337;52.978;6.310;2023-04-03T13:14:25;2.50;;;1.35;;
54428;SDS011;40337;52.978;6.310;2023-04-03T13:17:03;3.08;;;1.40;;
54428;SDS011;40337;52.978;6.310;2023-04-03T13:19:35;3.47;;;1.33;;
54428;SDS011;40337;52.978;6.310;2023-04-03T13:22:02;2.08;;;1.13;;
54428;SDS011;40337;52.978;6.310;2023-04-03T13:24:32;3.83;;;1.30;;
54428;SDS011;40337;52.978;6.310;2023-04-03T13:27:01;3.65;;;1.42;;
54428;SDS011;40337;52.978;6.310;2023-04-03T13:29:29;4.25;;;1.25;;
54428;SDS011;40337;52.978;6.310;2023-04-03T13:31:58;4.28;;;1.73;;
54428;SDS011;40337;52.978;6.310;2023-04-03T13:34:26;3.40;;;1.40;;
54428;SDS011;40337;52.978;6.310;2023-04-03T13:39:22;4.72;;;1.52;;
54428;SDS011;40337;52.978;6.310;2023-04-03T13:41:51;3.33;;;1.40;;
54428;SDS011;40337;52.978;6.310;2023-04-03T13:46:48;4.05;;;1.50;;
54428;SDS011;40337;52.978;6.310;2023-04-03T13:49:21;3.08;;;1.30;;
54428;SDS011;40337;52.978;6.310;2023-04-03T13:51:52;2.88;;;1.45;;
54428;SDS011;40337;52.978;6.310;2023-04-03T13:54:20;3.97;;;1.30;;
54428;SDS011;40337;52.978;6.310;2023-04-03T13:56:57;4.53;;;1.45;;
54428;SDS011;40337;52.978;6.310;2023-04-03T13:59:29;2.72;;;1.40;;
54428;SDS011;40337;52.978;6.310;2023-04-03T14:04:30;3.85;;;1.70;;
54428;SDS011;40337;52.978;6.310;2023-04-03T14:06:57;3.55;;;1.50;;
54428;SDS011;40337;52.978;6.310;2023-04-03T14:09:24;2.95;;;1.25;;
54428;SDS011;40337;52.978;6.310;2023-04-03T14:11:53;3.25;;;1.25;;
54428;SDS011;40337;52.978;6.310;2023-04-03T14:14:23;3.90;;;1.88;;
54428;SDS011;40337;52.978;6.310;2023-04-03T14:16:53;3.17;;;1.50;;
54428;SDS011;40337;52.978;6.310;2023-04-03T14:19:42;3.40;;;1.50;;
54428;SDS011;40337;52.978;6.310;2023-04-03T14:22:11;3.25;;;1.48;;
54428;SDS011;40337;52.978;6.310;2023-04-03T14:24:59;3.67;;;1.50;;
54428;SDS011;40337;52.978;6.310;2023-04-03T14:27:27;3.08;;;1.50;;
54428;SDS011;40337;52.978;6.310;2023-04-03T14:29:55;3.38;;;1.50;;
54428;SDS011;40337;52.978;6.310;2023-04-03T14:32:22;3.05;;;1.30;;
54428;SDS011;40337;52.978;6.310;2023-04-03T14:34:50;3.13;;;1.40;;
54428;SDS011;40337;52.978;6.310;2023-04-03T14:37:20;3.85;;;1.50;;
54428;SDS011;40337;52.978;6.310;2023-04-03T14:39:50;3.00;;;1.50;;
54428;SDS011;40337;52.978;6.310;2023-04-03T14:42:26;3.75;;;1.40;;
54428;SDS011;40337;52.978;6.310;2023-04-03T14:44:54;3.28;;;1.50;;
54428;SDS011;40337;52.978;6.310;2023-04-03T14:47:21;3.05;;;1.20;;
54428;SDS011;40337;52.978;6.310;2023-04-03T14:49:51;2.78;;;1.27;;
54428;SDS011;40337;52.978;6.310;2023-04-03T14:52:27;4.97;;;1.70;;
54428;SDS011;40337;52.978;6.310;2023-04-03T14:54:58;3.92;;;1.38;;
54428;SDS011;40337;52.978;6.310;2023-04-03T14:57:25;3.42;;;1.20;;
54428;SDS011;40337;52.978;6.310;2023-04-03T14:59:53;3.50;;;1.40;;
54428;SDS011;40337;52.978;6.310;2023-04-03T15:05:04;2.42;;;1.35;;
54428;SDS011;40337;52.978;6.310;2023-04-03T15:07:39;3.03;;;1.20;;
54428;SDS011;40337;52.978;6.310;2023-04-03T15:12:40;2.60;;;1.30;;
54428;SDS011;40337;52.978;6.310;2023-04-03T15:15:06;3.78;;;1.40;;
54428;SDS011;40337;52.978;6.310;2023-04-03T15:17:32;2.65;;;1.45;;
54428;SDS011;40337;52.978;6.310;2023-04-03T15:19:59;3.10;;;1.30;;
54428;SDS011;40337;52.978;6.310;2023-04-03T15:22:25;4.00;;;1.30;;
54428;SDS011;40337;52.978;6.310;2023-04-03T15:24:51;3.10;;;1.27;;
54428;SDS011;40337;52.978;6.310;2023-04-03T15:27:17;3.53;;;1.30;;
54428;SDS011;40337;52.978;6.310;2023-04-03T15:29:43;3.35;;;1.50;;
54428;SDS011;40337;52.978;6.310;2023-04-03T15:32:09;2.22;;;1.20;;
54428;SDS011;40337;52.978;6.310;2023-04-03T15:34:35;2.90;;;1.42;;
54428;SDS011;40337;52.978;6.310;2023-04-03T15:37:02;1.80;;;1.20;;
54428;SDS011;40337;52.978;6.310;2023-04-03T15:39:27;2.83;;;1.40;;
54428;SDS011;40337;52.978;6.310;2023-04-03T15:41:53;4.22;;;1.42;;
54428;SDS011;40337;52.978;6.310;2023-04-03T15:44:21;4.88;;;1.40;;
54428;SDS011;40337;52.978;6.310;2023-04-03T15:46:47;3.47;;;1.23;;
54428;SDS011;40337;52.978;6.310;2023-04-03T15:49:16;2.80;;;1.30;;
54428;SDS011;40337;52.978;6.310;2023-04-03T15:51:46;5.20;;;1.60;;
54428;SDS011;40337;52.978;6.310;2023-04-03T15:54:11;2.85;;;1.00;;
54428;SDS011;40337;52.978;6.310;2023-04-03T15:56:37;2.95;;;1.35;;
54428;SDS011;40337;52.978;6.310;2023-04-03T15:59:03;2.30;;;1.13;;
54428;SDS011;40337;52.978;6.310;2023-04-03T16:01:28;2.80;;;1.10;;
54428;SDS011;40337;52.978;6.310;2023-04-03T16:03:54;3.70;;;1.30;;
54428;SDS011;40337;52.978;6.310;2023-04-03T16:06:20;4.13;;;1.10;;
54428;SDS011;40337;52.978;6.310;2023-04-03T16:08:46;3.78;;;1.23;;
54428;SDS011;40337;52.978;6.310;2023-04-03T16:11:14;2.38;;;1.20;;
54428;SDS011;40337;52.978;6.310;2023-04-03T16:13:39;2.47;;;1.20;;
54428;SDS011;40337;52.978;6.310;2023-04-03T16:16:05;3.53;;;1.40;;
54428;SDS011;40337;52.978;6.310;2023-04-03T16:18:32;2.90;;;1.30;;
54428;SDS011;40337;52.978;6.310;2023-04-03T16:21:00;2.88;;;1.20;;
54428;SDS011;40337;52.978;6.310;2023-04-03T16:23:25;2.47;;;1.20;;
54428;SDS011;40337;52.978;6.310;2023-04-03T16:25:51;3.25;;;1.20;;
54428;SDS011;40337;52.978;6.310;2023-04-03T16:28:17;2.03;;;1.20;;
54428;SDS011;40337;52.978;6.310;2023-04-03T16:30:44;3.63;;;1.40;;
54428;SDS011;40337;52.978;6.310;2023-04-03T16:33:10;2.55;;;1.33;;
54428;SDS011;40337;52.978;6.310;2023-04-03T16:35:37;3.40;;;1.60;;
54428;SDS011;40337;52.978;6.310;2023-04-03T16:38:03;3.35;;;1.40;;
54428;SDS011;40337;52.978;6.310;2023-04-03T16:40:29;2.58;;;1.30;;